Time;durP1;ratioP1;P1;durP2;ratioP2;P2;SDS_P1;SDS_P2;PMS_P1;PMS_P2;Temp;Humidity;BMP_temperature;BMP_pressure;BME280_temperature;BME280_humidity;BME280_pressure;Samples;Min_cycle;Max_cycle;Signal;HPM_P1;HPM_P2
2023/11/12 00:02:01;;;;;;;2.20;1.00;;;;;;;5.78;68.54;94192.22;5112190;28;20027;-66
2023/11/12 00:04:27;;;;;;;2.72;1.20;;;;;;;5.82;68.82;94198.81;5113262;27;20030;-66
2023/11/12 00:06:52;;;;;;;3.97;1.10;;;;;;;5.91;68.32;94206.78;5129228;27;20459;-66
2023/11/12 00:09:18;;;;;;;1.80;1.02;;;;;;;5.79;68.14;94206.75;5094684;28;20047;-66
2023/11/12 00:11:44;;;;;;;2.70;1.52;;;;;;;5.77;68.36;94211.19;5113463;28;20443;-66
2023/11/12 00:14:10;;;;;;;2.42;1.17;;;;;;;5.56;68.81;94197.31;5111833;28;20046;-66
2023/11/12 00:16:35;;;;;;;2.83;0.98;;;;;;;5.60;68.95;94219.34;5146194;27;20027;-65
2023/11/12 00:19:04;;;;;;;2.03;1.10;;;;;;;5.57;69.47;94217.81;5111644;28;20039;-66
2023/11/12 00:21:29;;;;;;;1.88;1.20;;;;;;;5.60;69.21;94214.19;5128530;27;20019;-66
2023/11/12 00:23:55;;;;;;;2.83;1.10;;;;;;;5.60;68.93;94203.88;5111611;28;20512;-66
2023/11/12 00:26:22;;;;;;;1.92;1.10;;;;;;;5.59;68.08;94199.66;5128681;27;20019;-66
2023/11/12 00:28:47;;;;;;;1.80;1.00;;;;;;;5.39;68.40;94201.09;5128308;27;20120;-66
2023/11/12 00:31:13;;;;;;;2.03;1.10;;;;;;;5.41;69.01;94203.56;5111586;28;20469;-66
2023/11/12 00:33:38;;;;;;;1.70;1.10;;;;;;;5.13;69.64;94180.63;5145735;27;20039;-66
2023/11/12 00:36:04;;;;;;;3.38;1.20;;;;;;;5.46;69.49;94206.63;5111343;28;20428;-66
2023/11/12 00:38:30;;;;;;;1.73;1.00;;;;;;;5.32;70.08;94197.31;5128463;27;20031;-66
2023/11/12 00:40:56;;;;;;;1.70;0.93;;;;;;;5.29;69.62;94193.22;5111312;28;20504;-66
2023/11/12 00:43:27;;;;;;;2.22;1.20;;;;;;;5.17;70.21;94180.41;5111049;28;20059;-66
2023/11/12 00:45:59;;;;;;;1.92;1.02;;;;;;;4.95;70.60;94194.78;5127889;27;20039;-66
2023/11/12 00:48:24;;;;;;;1.90;1.10;;;;;;;5.25;69.62;94196.94;5112356;28;20496;-66
2023/11/12 00:50:49;;;;;;;2.13;1.00;;;;;;;5.25;69.21;94194.38;5110905;28;20023;-66
2023/11/12 00:53:15;;;;;;;2.08;1.02;;;;;;;5.14;69.55;94192.56;5112241;28;20044;-66
2023/11/12 00:55:40;;;;;;;2.05;1.15;;;;;;;5.11;69.29;94194.53;5110959;28;20020;-66
2023/11/12 00:58:06;;;;;;;1.60;0.80;;;;;;;4.89;69.53;94187.50;5112105;28;20032;-66
2023/11/12 01:00:31;;;;;;;1.60;1.00;;;;;;;5.00;69.70;94184.16;5111065;28;20030;-66
2023/11/12 01:02:57;;;;;;;1.60;1.05;;;;;;;4.91;69.98;94173.59;5090153;28;20032;-66
2023/11/12 01:05:23;;;;;;;1.77;1.10;;;;;;;4.97;70.33;94186.97;5091679;28;20458;-66
2023/11/12 01:07:48;;;;;;;1.60;1.00;;;;;;;4.96;70.41;94190.44;5090426;28;20063;-66
2023/11/12 01:10:13;;;;;;;1.50;1.05;;;;;;;4.91;70.48;94175.34;5107285;28;20059;-66
2023/11/12 01:12:39;;;;;;;1.98;1.02;;;;;;;4.94;70.57;94190.56;5090251;28;20513;-66
2023/11/12 01:15:05;;;;;;;1.77;1.00;;;;;;;4.91;70.31;94185.66;5090156;28;20521;-66
2023/11/12 01:17:30;;;;;;;1.60;1.00;;;;;;;4.94;70.88;94193.16;5103481;28;20402;-67
2023/11/12 01:19:56;;;;;;;1.95;1.00;;;;;;;4.96;69.87;94195.59;5109727;28;20413;-66
2023/11/12 01:22:21;;;;;;;2.42;1.05;;;;;;;4.72;70.37;94198.16;5108681;28;20535;-66
2023/11/12 01:24:47;;;;;;;1.48;0.90;;;;;;;4.68;70.05;94187.25;5109638;28;20038;-66
2023/11/12 01:27:12;;;;;;;4.43;1.10;;;;;;;4.66;69.99;94187.38;5111100;28;20023;-66
2023/11/12 01:29:38;;;;;;;1.83;0.90;;;;;;;4.54;70.93;94187.38;5110034;28;20524;-66
2023/11/12 01:32:04;;;;;;;3.20;0.80;;;;;;;4.14;71.88;94184.97;5111906;28;20524;-67
2023/11/12 01:34:29;;;;;;;2.92;1.00;;;;;;;4.15;72.23;94190.00;5111624;28;20036;-66
2023/11/12 01:36:55;;;;;;;1.58;1.00;;;;;;;4.20;72.62;94197.41;5110510;28;20031;-66
2023/11/12 01:39:20;;;;;;;2.25;1.00;;;;;;;4.39;71.70;94192.66;5110234;28;20028;-66
2023/11/12 01:41:45;;;;;;;2.22;1.30;;;;;;;3.99;72.78;94197.94;5111792;28;20042;-66
2023/11/12 01:44:11;;;;;;;1.63;1.02;;;;;;;4.33;72.18;94194.81;5110346;28;20055;-66
2023/11/12 01:46:37;;;;;;;2.65;1.20;;;;;;;4.24;71.83;94188.56;5111712;28;20050;-66
2023/11/12 01:49:03;;;;;;;1.48;1.00;;;;;;;4.11;71.56;94186.00;5109987;28;20424;-66
2023/11/12 01:51:29;;;;;;;3.88;1.20;;;;;;;4.02;71.71;94181.47;5110330;28;20292;-66
2023/11/12 01:53:54;;;;;;;1.67;1.02;;;;;;;4.05;71.63;94181.28;5110177;27;20024;-66
2023/11/12 01:56:19;;;;;;;3.00;1.90;;;;;;;4.14;71.63;94184.97;5093230;28;20108;-66
2023/11/12 01:58:45;;;;;;;4.75;2.00;;;;;;;3.64;72.55;94164.28;5109993;28;20481;-66
2023/11/12 02:01:10;;;;;;;3.97;2.30;;;;;;;3.84;72.53;94188.66;5092544;28;20469;-66
2023/11/12 02:03:36;;;;;;;3.35;2.15;;;;;;;3.86;72.63;94193.69;5109983;28;20027;-66
2023/11/12 02:06:03;;;;;;;4.28;2.45;;;;;;;3.55;73.04;94201.66;5110062;28;20470;-66
2023/11/12 02:08:30;;;;;;;2.67;2.00;;;;;;;3.71;73.30;94200.69;5109853;28;20039;-66
2023/11/12 02:10:56;;;;;;;4.05;2.00;;;;;;;3.65;72.97;94186.50;5109801;28;20031;-66
2023/11/12 02:13:21;;;;;;;3.53;2.10;;;;;;;3.47;73.70;94201.34;5109849;28;20024;-66
2023/11/12 02:15:47;;;;;;;6.13;3.40;;;;;;;3.52;74.09;94191.59;5109948;28;20061;-66
2023/11/12 02:18:13;;;;;;;5.65;3.08;;;;;;;3.45;75.15;94180.06;5109742;28;20084;-66
2023/11/12 02:20:47;;;;;;;3.83;2.05;;;;;;;3.58;74.28;94191.19;5109785;28;20040;-66
2023/11/12 02:23:15;;;;;;;3.05;1.70;;;;;;;3.70;73.95;94181.03;5109797;28;20023;-66
2023/11/12 02:25:43;;;;;;;1.73;1.00;;;;;;;3.62;73.96;94188.41;5109762;28;20036;-66
2023/11/12 02:28:10;;;;;;;4.57;2.05;;;;;;;3.41;74.84;94186.34;5109765;28;20038;-66
2023/11/12 02:30:37;;;;;;;2.80;1.70;;;;;;;3.61;73.74;94194.50;5109663;28;20035;-66
2023/11/12 02:33:03;;;;;;;2.92;1.70;;;;;;;3.43;74.91;94197.34;5092709;28;20024;-66
2023/11/12 02:35:29;;;;;;;3.42;1.88;;;;;;;3.43;74.70;94192.22;5092707;28;20042;-66
2023/11/12 02:37:55;;;;;;;6.50;3.60;;;;;;;3.55;75.08;94183.69;5093239;28;20028;-66
2023/11/12 02:40:21;;;;;;;3.70;2.70;;;;;;;3.61;74.51;94191.94;5110841;28;20089;-66
2023/11/12 02:42:47;;;;;;;3.40;2.22;;;;;;;3.22;75.22;94184.13;5109553;28;20032;-66
2023/11/12 02:45:13;;;;;;;1.67;1.00;;;;;;;3.33;75.82;94184.25;5109684;28;20047;-66
2023/11/12 02:47:41;;;;;;;2.10;1.40;;;;;;;3.56;75.15;94189.66;5092622;28;20024;-66
2023/11/12 02:50:32;;;;;;;3.33;1.45;;;;;;;3.46;74.71;94183.47;5109450;28;20066;-66
2023/11/12 02:53:00;;;;;;;1.60;1.13;;;;;;;3.14;74.77;94183.78;5109553;28;20096;-66
2023/11/12 02:55:27;;;;;;;1.63;1.10;;;;;;;3.34;74.70;94182.50;5109345;28;20118;-66
2023/11/12 02:57:52;;;;;;;1.67;1.00;;;;;;;3.31;74.49;94185.28;5092209;28;20550;-66
2023/11/12 03:00:18;;;;;;;1.67;0.95;;;;;;;3.09;75.96;94194.38;5110162;28;20035;-66
2023/11/12 03:02:46;;;;;;;1.50;0.88;;;;;;;3.27;75.64;94186.41;5126343;28;20031;-66
2023/11/12 03:05:12;;;;;;;1.52;0.95;;;;;;;3.02;74.17;94175.13;5109400;28;20031;-66
2023/11/12 03:07:38;;;;;;;2.97;1.20;;;;;;;3.10;74.75;94200.31;5126568;27;20546;-66
2023/11/12 03:10:05;;;;;;;1.77;1.00;;;;;;;3.13;75.28;94197.56;5110387;28;20028;-66
2023/11/12 03:12:31;;;;;;;4.10;1.30;;;;;;;3.01;75.19;94190.63;5109372;28;20411;-66
2023/11/12 03:14:57;;;;;;;1.65;0.98;;;;;;;2.92;74.79;94179.19;5112125;28;20550;-66
2023/11/12 03:17:22;;;;;;;1.85;1.13;;;;;;;2.67;76.72;94206.41;5113183;28;20039;-66
2023/11/12 03:19:50;;;;;;;2.00;1.15;;;;;;;3.07;77.35;94218.47;5112704;28;20028;-66
2023/11/12 03:22:15;;;;;;;4.07;1.30;;;;;;;2.99;77.15;94206.13;5130315;27;20519;-66
2023/11/12 03:24:41;;;;;;;2.08;1.20;;;;;;;2.93;77.83;94203.13;5095721;28;20032;-66
2023/11/12 03:27:08;;;;;;;2.33;1.20;;;;;;;3.07;77.82;94234.69;5114306;28;20024;-66
2023/11/12 03:29:33;;;;;;;2.17;1.13;;;;;;;2.89;77.38;94189.66;5112602;28;20081;-66
2023/11/12 03:31:59;;;;;;;2.40;1.20;;;;;;;3.01;76.45;94216.28;5095833;28;20031;-66
2023/11/12 03:34:24;;;;;;;1.98;1.17;;;;;;;3.06;77.23;94242.47;5095589;28;20028;-66
2023/11/12 03:36:50;;;;;;;2.45;1.20;;;;;;;3.06;76.98;94253.56;5114216;28;20093;-66
2023/11/12 03:39:15;;;;;;;2.83;1.98;;;;;;;2.99;77.10;94236.91;5113753;28;20046;-66
2023/11/12 03:41:41;;;;;;;3.30;1.70;;;;;;;2.85;77.65;94235.22;5113998;28;20024;-65
2023/11/12 03:44:07;;;;;;;2.33;1.40;;;;;;;2.83;77.80;94237.03;5129335;27;20047;-66
2023/11/12 03:46:34;;;;;;;3.45;1.20;;;;;;;2.63;78.17;94220.31;5112542;28;20110;-66
2023/11/12 03:48:59;;;;;;;2.72;2.08;;;;;;;3.13;76.67;94254.03;5113474;28;20063;-66
2023/11/12 03:51:25;;;;;;;2.42;1.10;;;;;;;3.07;76.33;94233.88;5112345;28;20096;-65
2023/11/12 03:53:50;;;;;;;2.50;1.50;;;;;;;2.67;76.80;94220.94;5095309;28;20467;-66
2023/11/12 03:56:15;;;;;;;2.35;1.50;;;;;;;2.51;77.14;94251.84;5112273;28;20515;-66
2023/11/12 03:58:41;;;;;;;3.17;2.30;;;;;;;2.78;77.71;94253.63;5112086;28;20042;-66
2023/11/12 04:01:06;;;;;;;2.47;1.50;;;;;;;2.76;77.40;94219.53;5112101;28;20024;-66
2023/11/12 04:03:32;;;;;;;3.28;1.50;;;;;;;2.72;77.51;94218.09;5112022;28;20050;-66
2023/11/12 04:05:57;;;;;;;2.20;1.50;;;;;;;2.46;78.68;94228.22;5111997;28;20031;-66
2023/11/12 04:08:22;;;;;;;2.97;1.90;;;;;;;2.74;78.17;94245.31;5111794;28;20027;-66
2023/11/12 04:10:48;;;;;;;2.92;1.55;;;;;;;2.39;77.94;94203.84;5111818;28;20035;-66
2023/11/12 04:13:13;;;;;;;2.28;1.10;;;;;;;2.53;78.20;94213.25;5111854;28;20039;-65
2023/11/12 04:15:39;;;;;;;2.25;1.50;;;;;;;2.44;79.17;94246.22;5094709;28;20036;-66
2023/11/12 04:18:04;;;;;;;4.50;3.28;;;;;;;2.80;78.53;94237.22;5094708;28;20028;-66
2023/11/12 04:20:32;;;;;;;5.28;2.40;;;;;;;2.64;78.49;94216.81;5094770;28;20492;-66
2023/11/12 04:22:58;;;;;;;3.88;1.48;;;;;;;2.62;78.23;94217.84;5094904;28;20149;-66
2023/11/12 04:25:23;;;;;;;3.08;1.55;;;;;;;2.63;78.82;94240.81;5094261;28;20053;-66
2023/11/12 04:27:49;;;;;;;2.95;1.45;;;;;;;2.82;78.11;94229.44;5111578;28;20314;-66
2023/11/12 04:30:15;;;;;;;2.60;1.40;;;;;;;2.54;77.75;94217.50;5111356;28;20080;-66
2023/11/12 04:32:41;;;;;;;7.60;3.80;;;;;;;2.64;78.03;94250.16;5094511;28;20127;-66
2023/11/12 04:35:07;;;;;;;8.50;5.00;;;;;;;2.78;78.10;94251.88;5111314;28;20026;-66
2023/11/12 04:37:32;;;;;;;3.08;1.60;;;;;;;3.02;76.89;94256.44;5111461;28;20040;-66
2023/11/12 04:40:00;;;;;;;3.58;1.60;;;;;;;2.90;77.03;94258.03;5112477;28;20056;-66
2023/11/12 04:42:26;;;;;;;3.15;1.95;;;;;;;2.97;77.16;94264.41;5077751;28;20020;-66
2023/11/12 04:44:52;;;;;;;3.38;1.90;;;;;;;3.04;76.72;94263.13;5093591;28;20074;-65
2023/11/12 04:47:17;;;;;;;3.55;1.90;;;;;;;3.06;76.71;94261.25;5110246;28;20478;-65
2023/11/12 04:49:43;;;;;;;3.72;1.80;;;;;;;3.06;76.18;94211.69;5090547;28;20040;-66
2023/11/12 04:52:08;;;;;;;3.25;1.85;;;;;;;3.17;75.99;94237.50;5090911;28;20036;-65
2023/11/12 04:54:34;;;;;;;2.53;1.35;;;;;;;2.98;76.35;94247.25;5073648;28;20028;-65
2023/11/12 04:56:59;;;;;;;4.38;2.17;;;;;;;2.90;77.41;94273.41;5093166;27;20092;-65
2023/11/12 04:59:24;;;;;;;4.53;3.05;;;;;;;3.14;77.01;94258.22;5109184;27;20032;-65
2023/11/12 05:01:50;;;;;;;6.93;3.85;;;;;;;2.95;77.61;94245.72;5106045;28;20027;-65
2023/11/12 05:04:16;;;;;;;4.55;2.40;;;;;;;2.94;77.56;94244.06;5108249;28;20031;-65
2023/11/12 05:06:41;;;;;;;4.30;2.03;;;;;;;2.80;78.22;94252.63;5106444;27;20030;-65
2023/11/12 05:09:07;;;;;;;6.30;2.20;;;;;;;2.91;79.10;94281.00;5106365;28;20032;-65
2023/11/12 05:11:32;;;;;;;5.03;2.60;;;;;;;3.29;77.90;94270.13;5089858;28;20027;-64
2023/11/12 05:13:58;;;;;;;6.10;2.72;;;;;;;3.12;78.27;94250.63;5106031;28;20046;-67
2023/11/12 05:16:23;;;;;;;3.50;2.10;;;;;;;3.25;77.92;94247.28;5087597;28;20039;-67
2023/11/12 05:18:49;;;;;;;4.47;2.50;;;;;;;2.90;78.74;94252.91;5105655;28;20042;-66
2023/11/12 05:21:14;;;;;;;3.90;1.85;;;;;;;3.01;78.11;94255.63;5089411;28;20035;-66
2023/11/12 05:23:40;;;;;;;9.32;4.40;;;;;;;2.99;79.30;94288.25;5106425;28;20031;-66
2023/11/12 05:26:05;;;;;;;13.13;6.63;;;;;;;3.29;77.56;94294.97;5106816;28;20023;-66
2023/11/12 05:28:31;;;;;;;8.38;5.88;;;;;;;3.31;76.92;94282.84;5088144;28;20035;-66
2023/11/12 05:30:56;;;;;;;8.25;5.82;;;;;;;3.06;77.86;94284.34;5107364;28;20459;-66
2023/11/12 05:33:24;;;;;;;7.55;6.00;;;;;;;2.86;79.28;94295.84;5106567;28;20039;-66
2023/11/12 05:35:50;;;;;;;7.50;5.57;;;;;;;3.19;78.85;94304.97;5104165;28;20421;-66
2023/11/12 05:38:15;;;;;;;9.18;5.82;;;;;;;3.53;76.89;94303.66;5106920;28;20035;-66
2023/11/12 05:40:41;;;;;;;8.20;5.35;;;;;;;3.19;76.70;94293.88;5108042;28;20027;-66
2023/11/12 05:43:06;;;;;;;10.25;5.80;;;;;;;2.99;78.74;94320.78;5105749;28;20032;-67
2023/11/12 05:45:32;;;;;;;10.07;6.03;;;;;;;3.28;78.09;94316.41;5104587;28;20193;-66
2023/11/12 05:47:57;;;;;;;8.38;6.13;;;;;;;3.34;76.54;94304.03;5105698;28;20084;-66
2023/11/12 05:50:23;;;;;;;5.90;3.88;;;;;;;3.41;76.80;94319.88;5106660;28;20159;-66
2023/11/12 05:52:50;;;;;;;6.95;4.13;;;;;;;3.07;78.02;94334.78;5098315;28;20036;-66
2023/11/12 05:55:15;;;;;;;10.52;6.53;;;;;;;3.18;78.91;94346.16;5104805;28;20028;-66
2023/11/12 05:57:41;;;;;;;10.52;6.30;;;;;;;3.50;77.28;94328.72;5105290;28;20047;-66
2023/11/12 06:00:10;;;;;;;9.32;6.13;;;;;;;3.57;77.44;94353.94;5089076;28;20135;-66
2023/11/12 06:02:36;;;;;;;8.93;5.35;;;;;;;3.49;77.71;94343.31;5089321;28;20039;-66
2023/11/12 06:05:03;;;;;;;7.40;5.00;;;;;;;3.43;77.59;94353.16;5104093;28;20497;-67
2023/11/12 06:07:29;;;;;;;10.20;5.30;;;;;;;3.24;79.01;94379.16;5106253;28;20043;-66
2023/11/12 06:09:55;;;;;;;13.70;10.30;;;;;;;3.41;78.89;94371.22;5106334;28;20055;-66
2023/11/12 06:12:20;;;;;;;6.60;4.15;;;;;;;3.18;79.61;94364.94;5106956;28;20027;-66
2023/11/12 06:14:45;;;;;;;5.13;3.30;;;;;;;3.23;79.49;94380.91;5103683;28;20039;-66
2023/11/12 06:17:12;;;;;;;9.52;3.95;;;;;;;3.24;80.39;94402.25;5105437;28;20020;-66
2023/11/12 06:19:38;;;;;;;10.43;5.85;;;;;;;3.65;78.90;94388.59;5107357;28;20027;-65
2023/11/12 06:22:03;;;;;;;7.97;5.20;;;;;;;3.79;77.84;94388.56;5105787;28;20502;-67
2023/11/12 06:24:29;;;;;;;10.25;5.40;;;;;;;3.59;78.66;94400.06;5105403;28;20101;-66
2023/11/12 06:26:54;;;;;;;11.10;6.47;;;;;;;3.51;79.57;94387.72;5105274;28;20052;-66
2023/11/12 06:29:19;;;;;;;12.55;7.43;;;;;;;3.91;78.24;94390.34;5071449;28;20027;-67
2023/11/12 06:31:45;;;;;;;7.32;4.35;;;;;;;4.21;76.66;94391.91;5106075;28;20042;-67
2023/11/12 06:34:10;;;;;;;8.95;5.72;;;;;;;3.98;77.92;94401.91;5107092;28;20042;-67
2023/11/12 06:36:36;;;;;;;14.02;7.10;;;;;;;3.94;78.96;94387.59;5103587;28;20032;-66
2023/11/12 06:39:01;;;;;;;5.00;2.72;;;;;;;4.35;76.86;94398.72;5088777;28;20058;-66
2023/11/12 06:41:26;;;;;;;4.03;2.17;;;;;;;4.23;75.29;94375.44;5088582;28;20490;-66
2023/11/12 06:43:52;;;;;;;3.70;2.30;;;;;;;4.36;75.50;94408.88;5108192;28;20520;-66
2023/11/12 06:46:17;;;;;;;182.82;40.10;;;;;;;4.58;75.79;94405.75;5103803;28;20031;-66
2023/11/12 06:48:43;;;;;;;23.38;7.53;;;;;;;4.62;74.41;94384.03;5107346;28;20644;-66
2023/11/12 06:51:09;;;;;;;10.35;3.85;;;;;;;4.66;74.07;94398.34;5110414;28;20520;-66
2023/11/12 06:53:34;;;;;;;10.00;3.88;;;;;;;4.77;74.56;94415.66;5110967;28;20031;-66
2023/11/12 06:56:00;;;;;;;4.20;2.22;;;;;;;5.04;73.93;94414.72;5109174;28;20031;-66
2023/11/12 06:58:25;;;;;;;14.02;6.32;;;;;;;5.26;72.05;94409.75;5108014;28;20042;-67
2023/11/12 07:00:51;;;;;;;5.80;2.90;;;;;;;5.12;71.99;94402.16;5108953;28;20053;-67
2023/11/12 07:03:17;;;;;;;22.25;9.07;;;;;;;5.04;73.82;94427.59;5092244;28;20540;-66
2023/11/12 07:05:43;;;;;;;9.20;4.60;;;;;;;5.25;72.98;94409.88;5112336;28;20130;-67
2023/11/12 07:08:08;;;;;;;10.30;4.93;;;;;;;5.54;71.53;94426.75;5113144;28;20505;-66
2023/11/12 07:10:34;;;;;;;9.95;5.40;;;;;;;5.62;71.49;94423.63;5113258;28;20027;-66
2023/11/12 07:13:00;;;;;;;13.00;5.43;;;;;;;5.42;72.88;94445.59;5104997;28;20042;-67
2023/11/12 07:15:26;;;;;;;15.10;6.93;;;;;;;5.82;72.06;94435.94;5108971;28;20554;-67
2023/11/12 07:17:52;;;;;;;7.10;3.75;;;;;;;5.85;70.81;94424.59;5110359;28;20038;-66
2023/11/12 07:20:18;;;;;;;9.02;4.15;;;;;;;5.82;70.95;94438.53;5110994;28;20036;-67
2023/11/12 07:22:46;;;;;;;9.80;4.63;;;;;;;5.94;71.53;94454.09;5107096;28;20104;-66
2023/11/12 07:25:12;;;;;;;13.93;7.00;;;;;;;6.29;71.02;94456.75;5109172;28;20066;-67
2023/11/12 07:27:38;;;;;;;11.45;6.03;;;;;;;6.42;70.50;94443.78;5108207;28;20513;-67
2023/11/12 07:30:04;;;;;;;8.00;4.20;;;;;;;6.54;69.48;94442.06;5110100;28;20059;-67
2023/11/12 07:32:30;;;;;;;11.70;4.22;;;;;;;6.35;69.87;94443.44;5106423;28;20047;-67
2023/11/12 07:34:55;;;;;;;9.70;4.57;;;;;;;6.25;71.92;94453.56;5091858;28;20478;-65
2023/11/12 07:37:21;;;;;;;6.63;3.80;;;;;;;6.77;70.84;94448.97;5109736;28;20028;-67
2023/11/12 07:39:46;;;;;;;9.50;3.90;;;;;;;6.80;69.37;94438.41;5108495;28;20096;-66
2023/11/12 07:42:11;;;;;;;7.63;5.43;;;;;;;6.78;70.97;94449.78;5091156;28;20036;-66
2023/11/12 07:44:37;;;;;;;5.95;3.65;;;;;;;6.69;71.09;94449.53;5106723;28;20059;-66
2023/11/12 07:47:04;;;;;;;5.50;3.00;;;;;;;7.06;69.64;94444.22;5109610;27;20035;-67
2023/11/12 07:49:30;;;;;;;4.07;2.53;;;;;;;7.41;67.64;94450.25;5108731;28;20118;-67
2023/11/12 07:51:56;;;;;;;5.78;3.00;;;;;;;7.01;68.27;94440.34;5113376;27;20055;-66
2023/11/12 07:54:21;;;;;;;3.88;2.10;;;;;;;7.54;65.88;94443.19;5107371;28;20516;-67
2023/11/12 07:56:47;;;;;;;3.78;1.73;;;;;;;7.72;65.87;94435.81;5107681;28;20024;-67
2023/11/12 07:59:12;;;;;;;4.07;1.73;;;;;;;7.42;66.34;94442.38;5108593;28;20036;-67
2023/11/12 08:01:38;;;;;;;3.17;1.80;;;;;;;7.25;66.89;94445.44;5108186;28;20030;-67
2023/11/12 08:04:04;;;;;;;3.35;1.13;;;;;;;7.30;65.85;94440.72;5088361;28;20036;-67
2023/11/12 08:06:30;;;;;;;2.38;1.20;;;;;;;7.34;64.77;94455.06;5108350;28;20028;-67
2023/11/12 08:08:56;;;;;;;3.05;1.30;;;;;;;7.28;65.00;94455.53;5073988;28;20059;-67
2023/11/12 08:11:21;;;;;;;4.28;2.20;;;;;;;7.41;64.77;94450.25;5106898;28;20088;-67
2023/11/12 08:13:47;;;;;;;7.07;3.30;;;;;;;7.77;61.38;94449.19;5108158;28;20035;-67
2023/11/12 08:16:13;;;;;;;8.00;4.30;;;;;;;7.67;62.39;94453.44;5108438;28;20067;-67
2023/11/12 08:18:39;;;;;;;9.10;4.18;;;;;;;7.69;61.82;94444.63;5108506;28;20794;-67
2023/11/12 08:21:05;;;;;;;7.88;3.10;;;;;;;7.63;61.44;94434.72;5090528;28;20457;-67
2023/11/12 08:23:31;;;;;;;5.45;3.50;;;;;;;7.76;61.67;94442.38;5088933;28;20032;-67
2023/11/12 08:25:57;;;;;;;4.53;2.83;;;;;;;7.77;61.03;94442.28;5098018;27;20030;-67
2023/11/12 08:28:24;;;;;;;3.33;1.92;;;;;;;7.86;62.23;94435.56;5106126;27;20023;-67
2023/11/12 08:30:49;;;;;;;3.25;2.03;;;;;;;7.83;62.09;94428.84;5098614;28;20116;-67
2023/11/12 08:33:15;;;;;;;5.32;1.95;;;;;;;7.96;61.41;94433.88;5111475;28;20039;-67
2023/11/12 08:35:40;;;;;;;4.50;1.77;;;;;;;7.80;60.54;94444.59;5117130;27;20397;-66
2023/11/12 08:38:06;;;;;;;5.32;2.83;;;;;;;7.76;60.46;94442.38;5118716;27;20038;-67
2023/11/12 08:40:32;;;;;;;3.67;1.90;;;;;;;7.73;60.89;94445.19;5116395;27;20114;-66
2023/11/12 08:42:57;;;;;;;3.13;1.65;;;;;;;7.57;61.67;94445.53;5110481;28;20509;-69
2023/11/12 08:45:22;;;;;;;8.85;4.72;;;;;;;7.27;62.37;94446.97;5093597;28;20051;-65
2023/11/12 08:47:48;;;;;;;9.60;5.55;;;;;;;7.29;65.30;94455.41;5094108;28;20038;-66
2023/11/12 08:50:14;;;;;;;8.68;5.85;;;;;;;7.24;66.96;94469.59;5107002;27;20049;-66
2023/11/12 08:52:39;;;;;;;15.77;9.88;;;;;;;7.15;67.72;94463.38;5115134;27;20040;-67
2023/11/12 08:55:08;;;;;;;11.38;7.97;;;;;;;7.23;68.64;94462.81;5115605;27;20523;-67
2023/11/12 08:57:34;;;;;;;9.43;6.47;;;;;;;7.09;69.47;94472.41;5104012;27;20042;-66
2023/11/12 09:00:00;;;;;;;11.63;7.20;;;;;;;6.83;70.29;94460.59;5108215;27;20481;-66
2023/11/12 09:02:27;;;;;;;7.50;5.22;;;;;;;6.74;70.80;94458.69;5104633;27;20045;-66
2023/11/12 09:04:52;;;;;;;9.90;5.05;;;;;;;6.67;71.18;94458.31;5112359;27;20031;-65
2023/11/12 09:07:18;;;;;;;7.82;4.78;;;;;;;6.51;71.49;94450.84;5108836;27;20042;-66
2023/11/12 09:09:43;;;;;;;6.43;4.07;;;;;;;6.74;70.91;94469.00;5115168;27;20052;-67
2023/11/12 09:12:09;;;;;;;7.78;5.10;;;;;;;6.40;71.97;94455.97;5115956;27;20088;-68
2023/11/12 09:14:35;;;;;;;32.38;19.70;;;;;;;6.39;72.97;94472.41;5118108;27;20612;-67
2023/11/12 09:17:01;;;;;;;13.60;9.65;;;;;;;6.48;72.39;94464.81;5119132;27;20030;-67
2023/11/12 09:19:26;;;;;;;25.02;16.13;;;;;;;6.47;72.40;94477.84;5117484;27;20035;-66
2023/11/12 09:21:53;;;;;;;16.52;10.55;;;;;;;6.63;72.01;94465.47;5119504;27;20466;-66
2023/11/12 09:24:18;;;;;;;17.02;10.70;;;;;;;6.71;71.96;94464.88;5137700;27;20036;-69
2023/11/12 09:26:45;;;;;;;19.85;10.73;;;;;;;6.88;71.57;94463.66;5114586;27;20027;-68
2023/11/12 09:29:11;;;;;;;26.02;11.63;;;;;;;6.63;71.36;94456.88;5118816;27;20448;-68
2023/11/12 09:31:37;;;;;;;23.73;11.73;;;;;;;6.77;71.83;94461.03;5117635;27;20413;-68
2023/11/12 09:34:02;;;;;;;22.13;12.15;;;;;;;6.99;71.17;94450.75;5115513;27;20023;-67
2023/11/12 09:36:28;;;;;;;28.60;16.20;;;;;;;7.29;70.19;94444.25;5115477;27;20062;-67
2023/11/12 09:38:53;;;;;;;25.77;14.35;;;;;;;7.37;69.19;94429.81;5131058;27;20058;-66
2023/11/12 09:41:21;;;;;;;28.40;17.85;;;;;;;7.25;69.46;94428.16;5122710;27;20117;-65
2023/11/12 09:43:46;;;;;;;24.52;15.52;;;;;;;6.83;71.17;94427.03;5116894;27;20046;-65
2023/11/12 09:46:11;;;;;;;24.27;16.88;;;;;;;6.56;72.45;94410.06;5126217;27;20035;-67
2023/11/12 09:48:40;;;;;;;20.58;15.27;;;;;;;6.67;73.34;94427.34;5092732;28;20020;-67
2023/11/12 09:51:08;;;;;;;15.20;9.73;;;;;;;7.01;72.45;94409.34;5110175;28;20046;-66
2023/11/12 09:53:34;;;;;;;12.77;9.18;;;;;;;6.75;73.04;94416.47;5092592;28;20114;-67
2023/11/12 09:56:08;;;;;;;13.63;9.40;;;;;;;6.70;73.64;94421.94;5086463;28;20036;-67
2023/11/12 09:58:35;;;;;;;14.98;10.20;;;;;;;6.60;73.86;94431.28;5109705;28;20028;-67
2023/11/12 10:01:00;;;;;;;19.52;11.88;;;;;;;6.67;73.65;94428.16;5109867;28;20039;-67
2023/11/12 10:03:25;;;;;;;17.27;11.93;;;;;;;6.52;73.70;94411.22;5109643;28;20028;-67
2023/11/12 10:05:51;;;;;;;11.45;7.70;;;;;;;6.76;73.57;94434.41;5110107;28;20500;-67
2023/11/12 10:08:17;;;;;;;11.18;7.78;;;;;;;6.61;73.28;94423.47;5092392;28;20485;-67
2023/11/12 10:10:43;;;;;;;13.90;8.57;;;;;;;6.51;73.68;94417.31;5092757;28;20035;-68
2023/11/12 10:13:09;;;;;;;12.05;8.10;;;;;;;6.69;73.53;94430.66;5108381;28;20485;-67
2023/11/12 10:15:34;;;;;;;11.35;7.32;;;;;;;6.66;73.52;94431.69;5107745;28;20031;-67
2023/11/12 10:18:00;;;;;;;10.60;6.47;;;;;;;6.72;73.44;94441.56;5091895;28;20027;-68
2023/11/12 10:20:27;;;;;;;10.77;6.88;;;;;;;6.96;73.07;94445.84;5084414;28;20023;-67
2023/11/12 10:22:53;;;;;;;19.15;12.98;;;;;;;6.84;73.36;94420.94;5111018;28;20499;-67
2023/11/12 10:25:38;;;;;;;10.65;6.93;;;;;;;6.92;73.33;94437.50;5103778;27;20027;-67
2023/11/12 10:28:04;;;;;;;10.38;7.53;;;;;;;6.83;73.09;94435.59;5132325;27;20027;-67
2023/11/12 10:30:30;;;;;;;13.98;8.85;;;;;;;6.93;73.07;94440.91;5132107;27;20019;-67
2023/11/12 10:32:58;;;;;;;25.75;13.55;;;;;;;6.90;72.49;94443.72;5132275;27;20478;-67
2023/11/12 10:35:31;;;;;;;16.50;11.07;;;;;;;6.97;72.32;94442.34;5115593;27;20041;-67
2023/11/12 10:37:57;;;;;;;23.33;15.02;;;;;;;6.92;71.86;94434.91;5132165;27;20408;-67
2023/11/12 10:40:24;;;;;;;33.65;20.73;;;;;;;7.06;71.18;94440.81;5114922;27;20027;-68
2023/11/12 10:42:51;;;;;;;22.55;14.82;;;;;;;7.02;70.76;94436.81;5134041;27;20046;-67
2023/11/12 10:45:17;;;;;;;18.05;9.98;;;;;;;7.09;70.54;94453.50;5132775;27;20043;-67
2023/11/12 10:47:43;;;;;;;18.85;10.43;;;;;;;7.05;70.18;94452.91;5132176;27;20042;-67
2023/11/12 10:50:09;;;;;;;19.50;9.60;;;;;;;7.08;69.74;94451.88;5114946;27;20050;-67
2023/11/12 10:52:34;;;;;;;16.63;9.60;;;;;;;7.19;69.71;94433.81;5131992;27;20086;-67
2023/11/12 10:55:00;;;;;;;13.75;7.88;;;;;;;7.16;68.88;94455.50;5114816;27;20520;-67
2023/11/12 10:57:25;;;;;;;19.35;10.70;;;;;;;7.20;68.96;94450.13;5097990;27;20016;-67
2023/11/12 10:59:51;;;;;;;10.93;6.20;;;;;;;7.24;68.49;94446.34;5132586;27;20031;-67
2023/11/12 11:02:18;;;;;;;11.27;6.57;;;;;;;7.42;68.65;94455.31;5134058;27;20488;-67
2023/11/12 11:04:45;;;;;;;9.38;6.68;;;;;;;7.53;68.10;94457.91;5133800;27;20520;-67
2023/11/12 11:07:10;;;;;;;9.55;5.35;;;;;;;7.49;67.19;94448.72;5133743;27;20064;-67
2023/11/12 11:09:36;;;;;;;19.00;9.18;;;;;;;7.43;67.29;94464.69;5134823;27;20031;-67
2023/11/12 11:12:01;;;;;;;21.38;9.93;;;;;;;7.34;68.01;94447.31;5135359;27;20141;-67
2023/11/12 11:14:29;;;;;;;15.02;8.15;;;;;;;7.32;67.88;94454.34;5133521;27;20031;-67
2023/11/12 11:16:55;;;;;;;18.55;8.60;;;;;;;7.29;68.71;94455.41;5117076;27;20031;-67
2023/11/12 11:19:48;;;;;;;11.43;6.50;;;;;;;7.59;66.60;94443.69;5133391;27;20519;-67
2023/11/12 11:22:24;;;;;;;9.32;6.53;;;;;;;7.55;67.20;94455.19;5134721;27;20023;-67
2023/11/12 11:24:49;;;;;;;10.90;6.53;;;;;;;7.65;67.47;94455.31;5109857;28;20044;-67
2023/11/12 11:27:18;;;;;;;11.00;6.35;;;;;;;7.82;67.14;94462.56;5095493;28;20031;-67
2023/11/12 11:30:16;;;;;;;15.70;8.63;;;;;;;7.58;66.30;94465.31;5113817;28;20035;-68
2023/11/12 11:32:54;;;;;;;22.08;12.52;;;;;;;7.67;66.89;94467.19;5079640;28;20047;-68
2023/11/12 11:35:21;;;;;;;10.70;6.32;;;;;;;7.91;66.12;94479.16;5112624;28;20062;-68